sensor_id;sensor_type;location;lat;lon;timestamp;temperature;humidity
61167;DHT22;47038;50.808;3.468;2022-08-21T00:00:40;17.70;94.60
61167;DHT22;47038;50.808;3.468;2022-08-21T00:03:06;17.80;94.60
61167;DHT22;47038;50.808;3.468;2022-08-21T00:05:36;17.70;94.60
61167;DHT22;47038;50.808;3.468;2022-08-21T00:08:02;17.70;94.60
61167;DHT22;47038;50.808;3.468;2022-08-21T00:10:28;17.60;94.70
61167;DHT22;47038;50.808;3.468;2022-08-21T00:12:54;17.60;94.90
61167;DHT22;47038;50.808;3.468;2022-08-21T00:15:21;17.50;95.00
61167;DHT22;47038;50.808;3.468;2022-08-21T00:17:47;17.50;95.30
61167;DHT22;47038;50.808;3.468;2022-08-21T00:20:14;17.50;95.40
61167;DHT22;47038;50.808;3.468;2022-08-21T00:22:40;17.50;95.50
61167;DHT22;47038;50.808;3.468;2022-08-21T00:25:06;17.50;95.40
61167;DHT22;47038;50.808;3.468;2022-08-21T00:27:32;17.40;95.50
61167;DHT22;47038;50.808;3.468;2022-08-21T00:29:58;17.40;95.60
61167;DHT22;47038;50.808;3.468;2022-08-21T00:32:24;17.40;95.60
61167;DHT22;47038;50.808;3.468;2022-08-21T00:34:50;17.40;95.70
61167;DHT22;47038;50.808;3.468;2022-08-21T00:37:16;17.40;95.60
61167;DHT22;47038;50.808;3.468;2022-08-21T00:39:42;17.40;95.70
61167;DHT22;47038;50.808;3.468;2022-08-21T00:42:08;17.40;95.70
61167;DHT22;47038;50.808;3.468;2022-08-21T00:44:34;17.30;95.80
61167;DHT22;47038;50.808;3.468;2022-08-21T00:47:00;17.40;95.70
61167;DHT22;47038;50.808;3.468;2022-08-21T00:49:25;17.30;95.70
61167;DHT22;47038;50.808;3.468;2022-08-21T00:51:55;17.20;96.00
61167;DHT22;47038;50.808;3.468;2022-08-21T00:54:24;17.20;96.10
61167;DHT22;47038;50.808;3.468;2022-08-21T00:56:56;17.10;96.30
61167;DHT22;47038;50.808;3.468;2022-08-21T00:59:23;17.10;96.40
61167;DHT22;47038;50.808;3.468;2022-08-21T01:01:50;17.10;96.40
61167;DHT22;47038;50.808;3.468;2022-08-21T01:04:17;17.20;96.30
61167;DHT22;47038;50.808;3.468;2022-08-21T01:06:43;17.10;96.40
61167;DHT22;47038;50.808;3.468;2022-08-21T01:09:09;17.10;96.60
61167;DHT22;47038;50.808;3.468;2022-08-21T01:11:34;17.00;96.70
61167;DHT22;47038;50.808;3.468;2022-08-21T01:14:01;17.00;96.80
61167;DHT22;47038;50.808;3.468;2022-08-21T01:16:27;17.00;96.80
61167;DHT22;47038;50.808;3.468;2022-08-21T01:18:54;17.00;96.80
61167;DHT22;47038;50.808;3.468;2022-08-21T01:21:21;17.00;96.70
61167;DHT22;47038;50.808;3.468;2022-08-21T01:23:48;17.00;96.50
61167;DHT22;47038;50.808;3.468;2022-08-21T01:26:15;16.90;96.50
61167;DHT22;47038;50.808;3.468;2022-08-21T01:28:42;16.70;97.00
61167;DHT22;47038;50.808;3.468;2022-08-21T01:31:09;16.70;97.30
61167;DHT22;47038;50.808;3.468;2022-08-21T01:33:36;16.70;97.50
61167;DHT22;47038;50.808;3.468;2022-08-21T01:36:03;16.70;97.40
61167;DHT22;47038;50.808;3.468;2022-08-21T01:38:29;16.80;97.40
61167;DHT22;47038;50.808;3.468;2022-08-21T01:40:54;16.90;97.30
61167;DHT22;47038;50.808;3.468;2022-08-21T01:43:20;16.90;97.30
61167;DHT22;47038;50.808;3.468;2022-08-21T01:45:46;16.80;97.40
61167;DHT22;47038;50.808;3.468;2022-08-21T01:48:11;16.70;97.50
61167;DHT22;47038;50.808;3.468;2022-08-21T01:50:37;16.70;97.60
61167;DHT22;47038;50.808;3.468;2022-08-21T01:53:02;16.70;97.70
61167;DHT22;47038;50.808;3.468;2022-08-21T01:55:28;16.70;97.50
61167;DHT22;47038;50.808;3.468;2022-08-21T01:57:53;16.70;97.50
61167;DHT22;47038;50.808;3.468;2022-08-21T02:00:20;16.60;97.80
61167;DHT22;47038;50.808;3.468;2022-08-21T02:02:48;16.50;97.70
61167;DHT22;47038;50.808;3.468;2022-08-21T02:05:13;16.50;98.00
61167;DHT22;47038;50.808;3.468;2022-08-21T02:07:40;16.40;98.20
61167;DHT22;47038;50.808;3.468;2022-08-21T02:10:07;16.50;98.30
61167;DHT22;47038;50.808;3.468;2022-08-21T02:12:33;16.50;98.30
61167;DHT22;47038;50.808;3.468;2022-08-21T02:14:59;16.50;98.10
61167;DHT22;47038;50.808;3.468;2022-08-21T02:17:25;16.50;98.20
61167;DHT22;47038;50.808;3.468;2022-08-21T02:19:52;16.50;98.30
61167;DHT22;47038;50.808;3.468;2022-08-21T02:22:18;16.50;98.40
61167;DHT22;47038;50.808;3.468;2022-08-21T02:24:44;16.50;98.30
61167;DHT22;47038;50.808;3.468;2022-08-21T02:27:09;16.50;98.20
61167;DHT22;47038;50.808;3.468;2022-08-21T02:29:35;16.50;98.10
61167;DHT22;47038;50.808;3.468;2022-08-21T02:32:00;16.30;98.30
61167;DHT22;47038;50.808;3.468;2022-08-21T02:34:26;16.20;98.50
61167;DHT22;47038;50.808;3.468;2022-08-21T02:36:51;16.20;98.80
61167;DHT22;47038;50.808;3.468;2022-08-21T02:39:17;16.30;98.90
61167;DHT22;47038;50.808;3.468;2022-08-21T02:41:42;16.30;98.80
61167;DHT22;47038;50.808;3.468;2022-08-21T02:44:08;16.40;98.70
61167;DHT22;47038;50.808;3.468;2022-08-21T02:46:34;16.40;98.60
61167;DHT22;47038;50.808;3.468;2022-08-21T02:48:59;16.40;98.50
61167;DHT22;47038;50.808;3.468;2022-08-21T02:51:25;16.30;98.50
61167;DHT22;47038;50.808;3.468;2022-08-21T02:53:51;16.30;98.80
61167;DHT22;47038;50.808;3.468;2022-08-21T02:56:18;16.20;98.90
61167;DHT22;47038;50.808;3.468;2022-08-21T02:58:45;16.30;98.90
61167;DHT22;47038;50.808;3.468;2022-08-21T03:01:11;16.20;98.70
61167;DHT22;47038;50.808;3.468;2022-08-21T03:03:38;16.20;98.80
61167;DHT22;47038;50.808;3.468;2022-08-21T03:06:04;16.20;98.80
61167;DHT22;47038;50.808;3.468;2022-08-21T03:08:30;16.30;98.80
61167;DHT22;47038;50.808;3.468;2022-08-21T03:10:56;16.30;98.80
61167;DHT22;47038;50.808;3.468;2022-08-21T03:13:21;16.30;98.80
61167;DHT22;47038;50.808;3.468;2022-08-21T03:15:47;16.30;98.90
61167;DHT22;47038;50.808;3.468;2022-08-21T03:18:13;16.30;98.80
61167;DHT22;47038;50.808;3.468;2022-08-21T03:20:39;16.30;98.80
61167;DHT22;47038;50.808;3.468;2022-08-21T03:23:05;16.30;98.80
61167;DHT22;47038;50.808;3.468;2022-08-21T03:25:32;16.20;98.80
61167;DHT22;47038;50.808;3.468;2022-08-21T03:27:58;16.30;98.80
61167;DHT22;47038;50.808;3.468;2022-08-21T03:30:23;16.20;98.90
61167;DHT22;47038;50.808;3.468;2022-08-21T03:32:49;16.20;99.10
61167;DHT22;47038;50.808;3.468;2022-08-21T03:35:16;16.20;99.10
61167;DHT22;47038;50.808;3.468;2022-08-21T03:37:42;16.20;99.00
61167;DHT22;47038;50.808;3.468;2022-08-21T03:40:08;16.20;99.00
61167;DHT22;47038;50.808;3.468;2022-08-21T03:42:34;16.10;99.00
61167;DHT22;47038;50.808;3.468;2022-08-21T03:45:00;16.20;98.90
61167;DHT22;47038;50.808;3.468;2022-08-21T03:47:26;16.10;98.90
61167;DHT22;47038;50.808;3.468;2022-08-21T03:49:51;16.00;99.00
61167;DHT22;47038;50.808;3.468;2022-08-21T03:52:17;15.90;99.30
61167;DHT22;47038;50.808;3.468;2022-08-21T03:54:43;16.00;99.20
61167;DHT22;47038;50.808;3.468;2022-08-21T03:57:09;15.90;99.20
61167;DHT22;47038;50.808;3.468;2022-08-21T03:59:36;15.90;99.30
61167;DHT22;47038;50.808;3.468;2022-08-21T04:02:03;15.90;99.40
61167;DHT22;47038;50.808;3.468;2022-08-21T04:04:30;15.90;99.40
61167;DHT22;47038;50.808;3.468;2022-08-21T04:06:56;15.80;99.40
61167;DHT22;47038;50.808;3.468;2022-08-21T04:09:22;15.80;99.60
61167;DHT22;47038;50.808;3.468;2022-08-21T04:11:48;15.80;99.70
61167;DHT22;47038;50.808;3.468;2022-08-21T04:14:14;15.70;99.50
61167;DHT22;47038;50.808;3.468;2022-08-21T04:16:41;15.70;99.60
61167;DHT22;47038;50.808;3.468;2022-08-21T04:19:07;15.60;99.80
61167;DHT22;47038;50.808;3.468;2022-08-21T04:21:33;15.60;99.70
61167;DHT22;47038;50.808;3.468;2022-08-21T04:23:59;15.60;99.90
61167;DHT22;47038;50.808;3.468;2022-08-21T04:26:25;15.50;99.90
61167;DHT22;47038;50.808;3.468;2022-08-21T04:28:51;15.50;99.90
61167;DHT22;47038;50.808;3.468;2022-08-21T04:31:17;15.50;99.90
61167;DHT22;47038;50.808;3.468;2022-08-21T04:33:43;15.50;99.90
61167;DHT22;47038;50.808;3.468;2022-08-21T04:36:10;15.50;99.90
61167;DHT22;47038;50.808;3.468;2022-08-21T04:38:36;15.60;99.90
61167;DHT22;47038;50.808;3.468;2022-08-21T04:41:01;15.50;99.90
61167;DHT22;47038;50.808;3.468;2022-08-21T04:43:27;15.40;99.90
61167;DHT22;47038;50.808;3.468;2022-08-21T04:45:53;15.30;99.90
61167;DHT22;47038;50.808;3.468;2022-08-21T04:48:20;15.40;99.90
61167;DHT22;47038;50.808;3.468;2022-08-21T04:50:56;15.40;99.90
61167;DHT22;47038;50.808;3.468;2022-08-21T04:55:58;15.50;99.90
61167;DHT22;47038;50.808;3.468;2022-08-21T04:58:26;15.40;99.90
61167;DHT22;47038;50.808;3.468;2022-08-21T05:00:53;15.60;99.90
61167;DHT22;47038;50.808;3.468;2022-08-21T05:03:19;15.60;99.90
61167;DHT22;47038;50.808;3.468;2022-08-21T05:05:45;15.50;99.90
61167;DHT22;47038;50.808;3.468;2022-08-21T05:08:12;15.50;99.90
61167;DHT22;47038;50.808;3.468;2022-08-21T05:10:39;15.50;99.90
61167;DHT22;47038;50.808;3.468;2022-08-21T05:13:06;15.60;99.90
61167;DHT22;47038;50.808;3.468;2022-08-21T05:15:32;15.60;99.90
61167;DHT22;47038;50.808;3.468;2022-08-21T05:17:57;15.70;99.90
61167;DHT22;47038;50.808;3.468;2022-08-21T05:20:23;15.70;99.90
61167;DHT22;47038;50.808;3.468;2022-08-21T05:22:49;15.70;99.90
61167;DHT22;47038;50.808;3.468;2022-08-21T05:25:14;15.80;99.90
61167;DHT22;47038;50.808;3.468;2022-08-21T05:27:40;15.80;99.90
61167;DHT22;47038;50.808;3.468;2022-08-21T05:30:06;15.90;99.90
61167;DHT22;47038;50.808;3.468;2022-08-21T05:32:32;15.90;99.90
61167;DHT22;47038;50.808;3.468;2022-08-21T05:34:59;15.90;99.90
61167;DHT22;47038;50.808;3.468;2022-08-21T05:37:24;16.00;99.90
61167;DHT22;47038;50.808;3.468;2022-08-21T05:39:50;16.10;99.90
61167;DHT22;47038;50.808;3.468;2022-08-21T05:42:15;16.10;99.80
61167;DHT22;47038;50.808;3.468;2022-08-21T05:44:41;16.20;99.70
61167;DHT22;47038;50.808;3.468;2022-08-21T05:47:08;16.20;99.70
61167;DHT22;47038;50.808;3.468;2022-08-21T05:49:34;16.30;99.70
61167;DHT22;47038;50.808;3.468;2022-08-21T05:52:00;16.40;99.50
61167;DHT22;47038;50.808;3.468;2022-08-21T05:54:26;16.40;99.30
61167;DHT22;47038;50.808;3.468;2022-08-21T05:56:52;16.60;99.40
61167;DHT22;47038;50.808;3.468;2022-08-21T05:59:18;16.70;99.10
61167;DHT22;47038;50.808;3.468;2022-08-21T06:01:44;16.90;98.80
61167;DHT22;47038;50.808;3.468;2022-08-21T06:04:10;16.90;98.90
61167;DHT22;47038;50.808;3.468;2022-08-21T06:06:36;16.90;99.00
61167;DHT22;47038;50.808;3.468;2022-08-21T06:09:02;17.00;99.20
61167;DHT22;47038;50.808;3.468;2022-08-21T06:11:28;17.00;99.00
61167;DHT22;47038;50.808;3.468;2022-08-21T06:13:53;17.20;99.00
61167;DHT22;47038;50.808;3.468;2022-08-21T06:16:19;17.20;99.10
61167;DHT22;47038;50.808;3.468;2022-08-21T06:18:44;17.40;98.80
61167;DHT22;47038;50.808;3.468;2022-08-21T06:21:11;17.60;98.60
61167;DHT22;47038;50.808;3.468;2022-08-21T06:23:36;17.70;98.20
61167;DHT22;47038;50.808;3.468;2022-08-21T06:26:02;17.70;98.90
61167;DHT22;47038;50.808;3.468;2022-08-21T06:28:28;17.90;98.60
61167;DHT22;47038;50.808;3.468;2022-08-21T06:30:54;18.10;98.30
61167;DHT22;47038;50.808;3.468;2022-08-21T06:33:19;18.20;98.00
61167;DHT22;47038;50.808;3.468;2022-08-21T06:35:45;18.20;98.20
61167;DHT22;47038;50.808;3.468;2022-08-21T06:38:10;18.20;97.90
61167;DHT22;47038;50.808;3.468;2022-08-21T06:40:36;18.40;97.80
61167;DHT22;47038;50.808;3.468;2022-08-21T06:43:07;18.60;97.70
61167;DHT22;47038;50.808;3.468;2022-08-21T06:45:33;18.70;97.20
61167;DHT22;47038;50.808;3.468;2022-08-21T06:47:58;18.60;97.70
61167;DHT22;47038;50.808;3.468;2022-08-21T06:50:24;18.80;97.50
61167;DHT22;47038;50.808;3.468;2022-08-21T06:52:57;19.10;97.00
61167;DHT22;47038;50.808;3.468;2022-08-21T06:55:23;19.40;96.60
61167;DHT22;47038;50.808;3.468;2022-08-21T06:57:48;19.70;96.10
61167;DHT22;47038;50.808;3.468;2022-08-21T07:00:14;19.80;96.10
61167;DHT22;47038;50.808;3.468;2022-08-21T07:02:39;19.90;96.40
61167;DHT22;47038;50.808;3.468;2022-08-21T07:05:05;19.80;96.70
61167;DHT22;47038;50.808;3.468;2022-08-21T07:07:30;20.00;96.30
61167;DHT22;47038;50.808;3.468;2022-08-21T07:09:56;20.00;96.40
61167;DHT22;47038;50.808;3.468;2022-08-21T07:12:22;20.00;96.40
61167;DHT22;47038;50.808;3.468;2022-08-21T07:14:47;20.10;96.20
61167;DHT22;47038;50.808;3.468;2022-08-21T07:17:13;20.10;96.50
61167;DHT22;47038;50.808;3.468;2022-08-21T07:19:39;20.20;96.40
61167;DHT22;47038;50.808;3.468;2022-08-21T07:22:04;20.40;96.10
61167;DHT22;47038;50.808;3.468;2022-08-21T07:24:30;20.30;96.60
61167;DHT22;47038;50.808;3.468;2022-08-21T07:26:56;20.40;96.50
61167;DHT22;47038;50.808;3.468;2022-08-21T07:29:22;20.40;96.60
61167;DHT22;47038;50.808;3.468;2022-08-21T07:31:48;20.30;96.60
61167;DHT22;47038;50.808;3.468;2022-08-21T07:34:13;20.40;96.80
61167;DHT22;47038;50.808;3.468;2022-08-21T07:36:39;20.40;96.80
61167;DHT22;47038;50.808;3.468;2022-08-21T07:39:05;20.70;96.40
61167;DHT22;47038;50.808;3.468;2022-08-21T07:41:30;21.00;96.10
61167;DHT22;47038;50.808;3.468;2022-08-21T07:43:57;21.20;95.70
61167;DHT22;47038;50.808;3.468;2022-08-21T07:46:23;21.30;95.50
61167;DHT22;47038;50.808;3.468;2022-08-21T07:48:48;21.50;95.00
61167;DHT22;47038;50.808;3.468;2022-08-21T07:51:15;21.60;94.80
61167;DHT22;47038;50.808;3.468;2022-08-21T07:53:41;21.60;94.90
61167;DHT22;47038;50.808;3.468;2022-08-21T07:56:07;21.30;95.20
61167;DHT22;47038;50.808;3.468;2022-08-21T07:58:33;21.10;95.70
61167;DHT22;47038;50.808;3.468;2022-08-21T08:00:59;21.20;95.40
61167;DHT22;47038;50.808;3.468;2022-08-21T08:03:25;21.30;95.20
61167;DHT22;47038;50.808;3.468;2022-08-21T08:05:51;21.50;95.10
61167;DHT22;47038;50.808;3.468;2022-08-21T08:08:16;21.70;94.80
61167;DHT22;47038;50.808;3.468;2022-08-21T08:10:42;21.90;94.40
61167;DHT22;47038;50.808;3.468;2022-08-21T08:13:08;22.00;94.60
61167;DHT22;47038;50.808;3.468;2022-08-21T08:15:33;22.20;93.70
61167;DHT22;47038;50.808;3.468;2022-08-21T08:17:59;22.00;94.20
61167;DHT22;47038;50.808;3.468;2022-08-21T08:20:26;22.20;93.40
61167;DHT22;47038;50.808;3.468;2022-08-21T08:22:52;21.90;93.90
61167;DHT22;47038;50.808;3.468;2022-08-21T08:25:18;22.20;93.80
61167;DHT22;47038;50.808;3.468;2022-08-21T08:27:44;22.30;93.50
61167;DHT22;47038;50.808;3.468;2022-08-21T08:30:11;22.40;93.30
61167;DHT22;47038;50.808;3.468;2022-08-21T08:32:37;22.60;93.10
61167;DHT22;47038;50.808;3.468;2022-08-21T08:35:04;22.90;92.60
61167;DHT22;47038;50.808;3.468;2022-08-21T08:37:30;23.10;92.10
61167;DHT22;47038;50.808;3.468;2022-08-21T08:39:56;23.20;92.00
61167;DHT22;47038;50.808;3.468;2022-08-21T08:42:26;23.30;91.90
61167;DHT22;47038;50.808;3.468;2022-08-21T08:44:55;23.50;91.10
61167;DHT22;47038;50.808;3.468;2022-08-21T08:47:22;23.70;90.90
61167;DHT22;47038;50.808;3.468;2022-08-21T08:49:53;23.80;90.00
61167;DHT22;47038;50.808;3.468;2022-08-21T08:52:27;23.70;89.90
61167;DHT22;47038;50.808;3.468;2022-08-21T08:55:07;23.60;90.10
61167;DHT22;47038;50.808;3.468;2022-08-21T08:57:33;23.70;89.20
61167;DHT22;47038;50.808;3.468;2022-08-21T09:00:00;23.80;89.10
61167;DHT22;47038;50.808;3.468;2022-08-21T09:02:26;23.80;89.30
61167;DHT22;47038;50.808;3.468;2022-08-21T09:04:54;23.90;88.10
61167;DHT22;47038;50.808;3.468;2022-08-21T09:17:44;24.50;82.90
61167;DHT22;47038;50.808;3.468;2022-08-21T09:20:23;24.30;84.30
61167;DHT22;47038;50.808;3.468;2022-08-21T09:27:47;24.60;84.00
61167;DHT22;47038;50.808;3.468;2022-08-21T09:30:13;24.90;82.10
61167;DHT22;47038;50.808;3.468;2022-08-21T09:32:39;24.70;82.40
61167;DHT22;47038;50.808;3.468;2022-08-21T09:35:07;24.70;81.40
61167;DHT22;47038;50.808;3.468;2022-08-21T09:37:44;24.60;81.30
61167;DHT22;47038;50.808;3.468;2022-08-21T09:40:44;24.50;82.50
61167;DHT22;47038;50.808;3.468;2022-08-21T09:43:14;24.50;81.70
61167;DHT22;47038;50.808;3.468;2022-08-21T09:45:42;24.70;81.10
61167;DHT22;47038;50.808;3.468;2022-08-21T09:48:09;24.80;81.00
61167;DHT22;47038;50.808;3.468;2022-08-21T09:50:36;24.70;80.30
61167;DHT22;47038;50.808;3.468;2022-08-21T09:53:01;24.40;81.40
61167;DHT22;47038;50.808;3.468;2022-08-21T09:55:38;24.50;81.50
61167;DHT22;47038;50.808;3.468;2022-08-21T09:58:30;24.90;79.50
61167;DHT22;47038;50.808;3.468;2022-08-21T10:00:58;24.90;79.60
61167;DHT22;47038;50.808;3.468;2022-08-21T10:03:23;24.80;79.80
61167;DHT22;47038;50.808;3.468;2022-08-21T10:05:55;24.60;80.60
61167;DHT22;47038;50.808;3.468;2022-08-21T10:08:21;24.70;79.10
61167;DHT22;47038;50.808;3.468;2022-08-21T10:10:50;24.80;79.70
61167;DHT22;47038;50.808;3.468;2022-08-21T10:20:53;25.50;76.80
61167;DHT22;47038;50.808;3.468;2022-08-21T10:23:39;25.60;77.10
61167;DHT22;47038;50.808;3.468;2022-08-21T10:26:20;25.20;77.70
61167;DHT22;47038;50.808;3.468;2022-08-21T10:31:28;25.00;78.70
61167;DHT22;47038;50.808;3.468;2022-08-21T10:45:18;25.00;78.50
61167;DHT22;47038;50.808;3.468;2022-08-21T10:47:48;25.20;78.40
61167;DHT22;47038;50.808;3.468;2022-08-21T10:50:30;25.30;78.50
61167;DHT22;47038;50.808;3.468;2022-08-21T10:55:26;25.80;77.40
61167;DHT22;47038;50.808;3.468;2022-08-21T10:57:57;25.80;77.10
61167;DHT22;47038;50.808;3.468;2022-08-21T11:00:23;25.60;77.30
61167;DHT22;47038;50.808;3.468;2022-08-21T11:06:01;26.40;75.70
61167;DHT22;47038;50.808;3.468;2022-08-21T11:08:23;26.90;75.10
61167;DHT22;47038;50.808;3.468;2022-08-21T11:11:11;27.10;73.20
61167;DHT22;47038;50.808;3.468;2022-08-21T11:18:42;27.00;72.60
61167;DHT22;47038;50.808;3.468;2022-08-21T11:21:15;26.90;73.20
61167;DHT22;47038;50.808;3.468;2022-08-21T11:23:50;27.10;73.40
61167;DHT22;47038;50.808;3.468;2022-08-21T11:26:41;27.00;73.30
61167;DHT22;47038;50.808;3.468;2022-08-21T11:29:26;27.00;72.30
61167;DHT22;47038;50.808;3.468;2022-08-21T11:39:56;26.80;72.60
61167;DHT22;47038;50.808;3.468;2022-08-21T11:52:33;26.50;72.90
61167;DHT22;47038;50.808;3.468;2022-08-21T11:55:06;26.40;73.10
61167;DHT22;47038;50.808;3.468;2022-08-21T11:57:41;26.50;72.90
61167;DHT22;47038;50.808;3.468;2022-08-21T12:00:16;26.60;73.60
61167;DHT22;47038;50.808;3.468;2022-08-21T12:02:44;26.80;72.60
61167;DHT22;47038;50.808;3.468;2022-08-21T12:05:11;26.90;71.50
61167;DHT22;47038;50.808;3.468;2022-08-21T12:07:47;26.90;72.20
61167;DHT22;47038;50.808;3.468;2022-08-21T12:10:16;27.10;71.60
61167;DHT22;47038;50.808;3.468;2022-08-21T12:12:43;27.30;71.50
61167;DHT22;47038;50.808;3.468;2022-08-21T12:17:36;27.20;71.00
61167;DHT22;47038;50.808;3.468;2022-08-21T12:20:22;26.90;71.10
61167;DHT22;47038;50.808;3.468;2022-08-21T12:23:01;27.00;72.40
61167;DHT22;47038;50.808;3.468;2022-08-21T12:25:35;27.10;71.80
61167;DHT22;47038;50.808;3.468;2022-08-21T12:28:08;27.30;71.10
61167;DHT22;47038;50.808;3.468;2022-08-21T12:30:36;27.40;70.60
61167;DHT22;47038;50.808;3.468;2022-08-21T12:33:04;27.40;70.30
61167;DHT22;47038;50.808;3.468;2022-08-21T12:35:49;27.40;70.60
61167;DHT22;47038;50.808;3.468;2022-08-21T12:38:18;27.50;70.10
61167;DHT22;47038;50.808;3.468;2022-08-21T12:41:01;27.50;70.00
61167;DHT22;47038;50.808;3.468;2022-08-21T12:43:40;27.40;70.00
61167;DHT22;47038;50.808;3.468;2022-08-21T12:46:06;27.50;70.70
61167;DHT22;47038;50.808;3.468;2022-08-21T12:48:42;27.30;71.50
61167;DHT22;47038;50.808;3.468;2022-08-21T12:53:40;27.10;71.20
61167;DHT22;47038;50.808;3.468;2022-08-21T12:56:09;27.40;70.40
61167;DHT22;47038;50.808;3.468;2022-08-21T12:58:34;27.40;70.40
61167;DHT22;47038;50.808;3.468;2022-08-21T13:01:02;27.30;70.60
61167;DHT22;47038;50.808;3.468;2022-08-21T13:03:28;27.20;70.30
61167;DHT22;47038;50.808;3.468;2022-08-21T13:05:54;27.20;70.80
61167;DHT22;47038;50.808;3.468;2022-08-21T13:08:21;27.40;70.30
61167;DHT22;47038;50.808;3.468;2022-08-21T13:10:49;27.20;70.60
61167;DHT22;47038;50.808;3.468;2022-08-21T13:13:22;27.20;71.00
61167;DHT22;47038;50.808;3.468;2022-08-21T13:15:49;27.30;71.00
61167;DHT22;47038;50.808;3.468;2022-08-21T13:18:25;27.40;70.70
61167;DHT22;47038;50.808;3.468;2022-08-21T13:20:51;27.40;70.10
61167;DHT22;47038;50.808;3.468;2022-08-21T13:23:25;27.60;69.60
61167;DHT22;47038;50.808;3.468;2022-08-21T13:25:51;27.40;69.30
61167;DHT22;47038;50.808;3.468;2022-08-21T13:28:17;27.30;70.00
61167;DHT22;47038;50.808;3.468;2022-08-21T13:30:47;27.10;70.80
61167;DHT22;47038;50.808;3.468;2022-08-21T13:33:14;26.80;71.60
61167;DHT22;47038;50.808;3.468;2022-08-21T13:38:12;27.00;69.90
61167;DHT22;47038;50.808;3.468;2022-08-21T13:41:12;27.10;71.30
61167;DHT22;47038;50.808;3.468;2022-08-21T13:43:33;27.10;70.60
61167;DHT22;47038;50.808;3.468;2022-08-21T13:46:00;27.10;70.80
61167;DHT22;47038;50.808;3.468;2022-08-21T13:48:27;27.00;71.00
61167;DHT22;47038;50.808;3.468;2022-08-21T13:50:54;27.00;71.10
61167;DHT22;47038;50.808;3.468;2022-08-21T13:53:28;27.00;71.50
61167;DHT22;47038;50.808;3.468;2022-08-21T13:55:55;27.10;71.30
61167;DHT22;47038;50.808;3.468;2022-08-21T13:58:25;27.10;71.00
61167;DHT22;47038;50.808;3.468;2022-08-21T14:00:51;27.10;70.90
61167;DHT22;47038;50.808;3.468;2022-08-21T14:03:37;27.00;70.90
61167;DHT22;47038;50.808;3.468;2022-08-21T14:06:11;27.10;71.00
61167;DHT22;47038;50.808;3.468;2022-08-21T14:08:38;27.10;71.10
61167;DHT22;47038;50.808;3.468;2022-08-21T14:11:09;26.90;71.40
61167;DHT22;47038;50.808;3.468;2022-08-21T14:16:03;26.60;72.60
61167;DHT22;47038;50.808;3.468;2022-08-21T14:18:29;26.60;72.50
61167;DHT22;47038;50.808;3.468;2022-08-21T14:21:05;26.60;72.80
61167;DHT22;47038;50.808;3.468;2022-08-21T14:23:30;26.60;72.20
61167;DHT22;47038;50.808;3.468;2022-08-21T14:25:58;26.70;72.40
61167;DHT22;47038;50.808;3.468;2022-08-21T14:28:28;26.90;71.90
61167;DHT22;47038;50.808;3.468;2022-08-21T14:30:57;26.90;71.20
61167;DHT22;47038;50.808;3.468;2022-08-21T14:33:27;27.00;71.30
61167;DHT22;47038;50.808;3.468;2022-08-21T14:35:53;27.00;70.80
61167;DHT22;47038;50.808;3.468;2022-08-21T14:38:20;27.30;70.60
61167;DHT22;47038;50.808;3.468;2022-08-21T14:40:47;27.60;69.70
61167;DHT22;47038;50.808;3.468;2022-08-21T14:43:14;27.70;70.10
61167;DHT22;47038;50.808;3.468;2022-08-21T14:45:40;27.80;70.00
61167;DHT22;47038;50.808;3.468;2022-08-21T14:48:06;28.00;69.80
61167;DHT22;47038;50.808;3.468;2022-08-21T14:50:32;27.90;69.70
61167;DHT22;47038;50.808;3.468;2022-08-21T14:52:58;28.00;69.70
61167;DHT22;47038;50.808;3.468;2022-08-21T14:55:23;28.10;69.40
61167;DHT22;47038;50.808;3.468;2022-08-21T14:57:50;28.10;69.50
61167;DHT22;47038;50.808;3.468;2022-08-21T15:00:17;28.50;68.20
61167;DHT22;47038;50.808;3.468;2022-08-21T15:02:44;29.00;67.20
61167;DHT22;47038;50.808;3.468;2022-08-21T15:05:10;29.00;66.90
61167;DHT22;47038;50.808;3.468;2022-08-21T15:07:36;28.90;67.30
61167;DHT22;47038;50.808;3.468;2022-08-21T15:10:02;29.00;67.40
61167;DHT22;47038;50.808;3.468;2022-08-21T15:12:28;29.00;67.10
61167;DHT22;47038;50.808;3.468;2022-08-21T15:14:54;29.20;66.40
61167;DHT22;47038;50.808;3.468;2022-08-21T15:17:19;28.90;66.60
61167;DHT22;47038;50.808;3.468;2022-08-21T15:19:45;28.70;67.70
61167;DHT22;47038;50.808;3.468;2022-08-21T15:22:10;28.80;67.60
61167;DHT22;47038;50.808;3.468;2022-08-21T15:24:37;29.00;67.80
61167;DHT22;47038;50.808;3.468;2022-08-21T15:27:03;29.20;66.70
61167;DHT22;47038;50.808;3.468;2022-08-21T15:29:30;29.10;66.50
61167;DHT22;47038;50.808;3.468;2022-08-21T15:31:56;29.10;66.70
61167;DHT22;47038;50.808;3.468;2022-08-21T15:34:23;29.00;66.60
61167;DHT22;47038;50.808;3.468;2022-08-21T15:36:49;29.00;66.60
61167;DHT22;47038;50.808;3.468;2022-08-21T15:39:15;28.50;66.80
61167;DHT22;47038;50.808;3.468;2022-08-21T15:41:40;28.40;67.90
61167;DHT22;47038;50.808;3.468;2022-08-21T15:44:06;28.40;67.40
61167;DHT22;47038;50.808;3.468;2022-08-21T15:46:34;28.60;67.50
61167;DHT22;47038;50.808;3.468;2022-08-21T15:48:59;28.60;67.00
61167;DHT22;47038;50.808;3.468;2022-08-21T15:51:25;28.50;67.00
61167;DHT22;47038;50.808;3.468;2022-08-21T15:53:50;28.40;67.20
61167;DHT22;47038;50.808;3.468;2022-08-21T15:58:48;28.10;67.20
61167;DHT22;47038;50.808;3.468;2022-08-21T16:01:14;28.00;67.60
61167;DHT22;47038;50.808;3.468;2022-08-21T16:03:40;27.90;67.90
61167;DHT22;47038;50.808;3.468;2022-08-21T16:06:06;27.70;68.40
61167;DHT22;47038;50.808;3.468;2022-08-21T16:08:31;27.60;68.90
61167;DHT22;47038;50.808;3.468;2022-08-21T16:10:57;27.40;69.00
61167;DHT22;47038;50.808;3.468;2022-08-21T16:13:24;27.30;69.40
61167;DHT22;47038;50.808;3.468;2022-08-21T16:15:50;27.30;69.90
61167;DHT22;47038;50.808;3.468;2022-08-21T16:18:17;27.10;70.90
61167;DHT22;47038;50.808;3.468;2022-08-21T16:20:43;27.00;71.70
61167;DHT22;47038;50.808;3.468;2022-08-21T16:23:09;26.90;70.60
61167;DHT22;47038;50.808;3.468;2022-08-21T16:25:35;26.80;70.50
61167;DHT22;47038;50.808;3.468;2022-08-21T16:28:01;26.60;71.00
61167;DHT22;47038;50.808;3.468;2022-08-21T16:30:28;26.60;71.00
61167;DHT22;47038;50.808;3.468;2022-08-21T16:32:54;26.60;71.00
61167;DHT22;47038;50.808;3.468;2022-08-21T16:35:20;26.60;71.10
61167;DHT22;47038;50.808;3.468;2022-08-21T16:37:45;26.40;71.00
61167;DHT22;47038;50.808;3.468;2022-08-21T16:40:11;26.60;70.50
61167;DHT22;47038;50.808;3.468;2022-08-21T16:42:37;26.50;70.00
61167;DHT22;47038;50.808;3.468;2022-08-21T16:45:05;26.50;70.70
61167;DHT22;47038;50.808;3.468;2022-08-21T16:47:31;26.50;70.70
61167;DHT22;47038;50.808;3.468;2022-08-21T16:49:56;26.40;71.60
61167;DHT22;47038;50.808;3.468;2022-08-21T16:52:22;26.30;71.40